LFOB/BVA METAR and TAF weather

Enter ICAO airport designator
Station Type Date Time Source
LFOB METAR 2019/08/17 11:30 UTC NOAA

LFOB 171130Z AUTO 19008KT 9999 OVC009/// ///TCU 19/18 Q1009 TEMPO 2500 DZRA OVC005


Station Type Date Time Source
LFOB Decoded METAR 2019/08/17 11:30 UTC NOAA

Station name not available
Aug 17, 2019 - 07:30 AM EDT / 2019.08.17 1130 UTC
Wind: from the S (190 degrees) at 9 MPH (8 KT):0
Visibility: greater than 7 mile(s):0
Sky conditions: overcast
Weather: Towering cumulus clouds observed
Temperature: 66 F (19 C)
Dew Point: 64 F (18 C)
Relative Humidity: 93%
Pressure (altimeter): 29.80 in. Hg (1009 hPa)
ob: LFOB 171130Z AUTO 19008KT 9999 OVC009/// ///TCU 19/18 Q1009 TEMPO 2500 DZRA OVC005
cycle: 11

Station Type Date Time Source
LFOB TAF 2019/08/17 12:21 UTC NOAA

TAF TAF LFOB 171100Z 1712/1812 20010KT 9999 OVC012
TEMPO 1712/1717 2500 DZRA OVC005
BECMG 1717/1720 BKN025
BECMG 1722/1801 4000 RA OVC013
TEMPO 1803/1806 2000 OVC005 PROB40 1805/1807 20020G30KT
BECMG 1807/1809 28010KT 9999 NSW
BECMG 1809/1811 BKN020

Example: see airport list